sensor_id;sensor_type;location;lat;lon;timestamp;P1;P2;P0
74432;PMS7003;62865;53.146;23.172;2023-04-06T00:01:43;8.8;7.4;4.6
74432;PMS7003;62865;53.146;23.172;2023-04-06T00:06:01;9.6;8.2;5.2
74432;PMS7003;62865;53.146;23.172;2023-04-06T00:11:35;9;6.6;4.6
74432;PMS7003;62865;53.146;23.172;2023-04-06T00:16:43;8.2;6.8;5.2
74432;PMS7003;62865;53.146;23.172;2023-04-06T00:21:43;5.8;5.4;2.6
74432;PMS7003;62865;53.146;23.172;2023-04-06T00:26:13;7;6.8;4.2
74432;PMS7003;62865;53.146;23.172;2023-04-06T00:31:01;7.6;6.4;4.8
74432;PMS7003;62865;53.146;23.172;2023-04-06T00:36:25;6.6;5.8;4.6
74432;PMS7003;62865;53.146;23.172;2023-04-06T00:41:02;6.8;6;3.8
74432;PMS7003;62865;53.146;23.172;2023-04-06T00:46:43;8;6;4.2
74432;PMS7003;62865;53.146;23.172;2023-04-06T00:51:07;9.4;7.6;4.4
74432;PMS7003;62865;53.146;23.172;2023-04-06T00:56:07;7.4;6.4;4.6
74432;PMS7003;62865;53.146;23.172;2023-04-06T01:01:19;9.4;8.2;5.2
74432;PMS7003;62865;53.146;23.172;2023-04-06T01:06:01;7.2;5.6;3.6
74432;PMS7003;62865;53.146;23.172;2023-04-06T01:11:43;7.8;5.6;4.4
74432;PMS7003;62865;53.146;23.172;2023-04-06T01:16:11;6.8;6.2;4.6
74432;PMS7003;62865;53.146;23.172;2023-04-06T01:21:23;7.3;6;3.5
74432;PMS7003;62865;53.146;23.172;2023-04-06T01:26:19;7.4;5.8;3.8
74432;PMS7003;62865;53.146;23.172;2023-04-06T01:31:08;7.4;6;3.8
74432;PMS7003;62865;53.146;23.172;2023-04-06T01:36:41;7.4;6;4.6
74432;PMS7003;62865;53.146;23.172;2023-04-06T01:41:05;7;6;4.2
74432;PMS7003;62865;53.146;23.172;2023-04-06T01:46:07;9.3;7.5;5
74432;PMS7003;62865;53.146;23.172;2023-04-06T01:51:25;7;5.8;3.6
74432;PMS7003;62865;53.146;23.172;2023-04-06T01:56:23;5.4;3.8;2.2
74432;PMS7003;62865;53.146;23.172;2023-04-06T02:01:43;5.4;4;2.4
74432;PMS7003;62865;53.146;23.172;2023-04-06T02:06:07;6;4.8;3.4
74432;PMS7003;62865;53.146;23.172;2023-04-06T02:11:01;7.2;5.4;3.2
74432;PMS7003;62865;53.146;23.172;2023-04-06T02:16:25;7.8;6.2;4.8
74432;PMS7003;62865;53.146;23.172;2023-04-06T02:21:07;5.4;4;2.6
74432;PMS7003;62865;53.146;23.172;2023-04-06T02:26:43;4.8;4;2.8
74432;PMS7003;62865;53.146;23.172;2023-04-06T02:31:01;9.2;7;4.6
74432;PMS7003;62865;53.146;23.172;2023-04-06T02:36:01;6.6;5.4;3.8
74432;PMS7003;62865;53.146;23.172;2023-04-06T02:41:25;6;4.8;3
74432;PMS7003;62865;53.146;23.172;2023-04-06T02:46:07;7.4;4.8;2.8
74432;PMS7003;62865;53.146;23.172;2023-04-06T02:51:43;6.6;4;2
74432;PMS7003;62865;53.146;23.172;2023-04-06T02:56:13;5.4;4.8;3.4
74432;PMS7003;62865;53.146;23.172;2023-04-06T03:01:23;3;3;2.2
74432;PMS7003;62865;53.146;23.172;2023-04-06T03:06:25;6;3.8;2.4
74432;PMS7003;62865;53.146;23.172;2023-04-06T03:11:17;4;3.4;2.6
74432;PMS7003;62865;53.146;23.172;2023-04-06T03:16:43;4.4;3.4;2.2
74432;PMS7003;62865;53.146;23.172;2023-04-06T03:21:01;4.4;3.8;2.6
74432;PMS7003;62865;53.146;23.172;2023-04-06T03:26:35;4.6;3.2;2
74432;PMS7003;62865;53.146;23.172;2023-04-06T03:31:19;4.2;3.2;2.2
74432;PMS7003;62865;53.146;23.172;2023-04-06T03:36:01;4.5;2.8;2.3
74432;PMS7003;62865;53.146;23.172;2023-04-06T03:41:43;4;3.5;2.3
74432;PMS7003;62865;53.146;23.172;2023-04-06T03:46:17;5;4;2.8
74432;PMS7003;62865;53.146;23.172;2023-04-06T03:51:13;4.8;3.8;2.4
74432;PMS7003;62865;53.146;23.172;2023-04-06T03:56:25;2.8;2.4;1.8
74432;PMS7003;62865;53.146;23.172;2023-04-06T04:01:01;4;3.4;2.2
74432;PMS7003;62865;53.146;23.172;2023-04-06T04:06:43;5.6;4.8;2.6
74432;PMS7003;62865;53.146;23.172;2023-04-06T04:11:07;6;3.2;2
74432;PMS7003;62865;53.146;23.172;2023-04-06T04:16:01;6.8;4.6;2.8
74432;PMS7003;62865;53.146;23.172;2023-04-06T04:21:19;6;5;3.2
74432;PMS7003;62865;53.146;23.172;2023-04-06T04:26:01;4.8;3.6;2.6
74432;PMS7003;62865;53.146;23.172;2023-04-06T04:31:43;5.8;5.4;3
74432;PMS7003;62865;53.146;23.172;2023-04-06T04:36:05;10;7;4.2
74432;PMS7003;62865;53.146;23.172;2023-04-06T04:41:43;6.8;5.6;3
74432;PMS7003;62865;53.146;23.172;2023-04-06T04:46:23;5.4;4.4;3.2
74432;PMS7003;62865;53.146;23.172;2023-04-06T04:50:59;3.6;3;2.2
74432;PMS7003;62865;53.146;23.172;2023-04-06T04:56:41;5.2;3.6;2.2
74432;PMS7003;62865;53.146;23.172;2023-04-06T05:01:11;7.8;6.2;3.8
74432;PMS7003;62865;53.146;23.172;2023-04-06T05:06:41;6;5.5;3.5
74432;PMS7003;62865;53.146;23.172;2023-04-06T05:11:17;8.6;6.8;4.6
74432;PMS7003;62865;53.146;23.172;2023-04-06T05:16:01;7.2;6;3.8
74432;PMS7003;62865;53.146;23.172;2023-04-06T05:21:27;5.6;5;3.8
74432;PMS7003;62865;53.146;23.172;2023-04-06T05:26:13;7.2;5.4;2.8
74432;PMS7003;62865;53.146;23.172;2023-04-06T05:31:43;7;5.4;3
74432;PMS7003;62865;53.146;23.172;2023-04-06T05:36:23;8.4;7.2;4
74432;PMS7003;62865;53.146;23.172;2023-04-06T05:41:01;5.4;5.2;3
74432;PMS7003;62865;53.146;23.172;2023-04-06T05:46:41;7.8;6.4;4.4
74432;PMS7003;62865;53.146;23.172;2023-04-06T05:51:15;6.6;6;3.8
74432;PMS7003;62865;53.146;23.172;2023-04-06T05:56:41;7;5.4;3.6
74432;PMS7003;62865;53.146;23.172;2023-04-06T06:01:23;8.4;6;4.6
74432;PMS7003;62865;53.146;23.172;2023-04-06T06:06:05;8.4;6.4;4.6
74432;PMS7003;62865;53.146;23.172;2023-04-06T06:11:41;7.4;5.8;3.8
74432;PMS7003;62865;53.146;23.172;2023-04-06T06:16:11;9.2;7.6;5.2
74432;PMS7003;62865;53.146;23.172;2023-04-06T06:21:41;7;5.3;3.8
74432;PMS7003;62865;53.146;23.172;2023-04-06T06:26:13;9;6.5;3.5
74432;PMS7003;62865;53.146;23.172;2023-04-06T06:31:15;9;7;4.8
74432;PMS7003;62865;53.146;23.172;2023-04-06T06:36:41;8.6;5.4;3
74432;PMS7003;62865;53.146;23.172;2023-04-06T06:40:59;8.4;7;4.2
74432;PMS7003;62865;53.146;23.172;2023-04-06T06:46:41;9;6.2;4.6
74432;PMS7003;62865;53.146;23.172;2023-04-06T06:51:21;7.4;6.2;3.2
74432;PMS7003;62865;53.146;23.172;2023-04-06T06:56:05;7.4;6;3.8
74432;PMS7003;62865;53.146;23.172;2023-04-06T07:01:41;8.6;6.6;4.8
74432;PMS7003;62865;53.146;23.172;2023-04-06T07:06:11;7.8;6.8;4.3
74432;PMS7003;62865;53.146;23.172;2023-04-06T07:11:41;7.8;5.4;2.8
74432;PMS7003;62865;53.146;23.172;2023-04-06T07:16:23;8.5;6;4.5
74432;PMS7003;62865;53.146;23.172;2023-04-06T07:20:59;7.4;5.2;3.6
74432;PMS7003;62865;53.146;23.172;2023-04-06T07:26:41;8.8;5.8;4.5
74432;PMS7003;62865;53.146;23.172;2023-04-06T07:31:11;7.2;6;3.6
74432;PMS7003;62865;53.146;23.172;2023-04-06T07:36:41;8;6.2;4.6
74432;PMS7003;62865;53.146;23.172;2023-04-06T07:41:23;6.6;5.8;3.2
74432;PMS7003;62865;53.146;23.172;2023-04-06T07:46:15;7.8;6.3;4.5
74432;PMS7003;62865;53.146;23.172;2023-04-06T07:51:41;8;6.4;4
74432;PMS7003;62865;53.146;23.172;2023-04-06T07:56:05;5;4.8;2.8
74432;PMS7003;62865;53.146;23.172;2023-04-06T08:01:41;8.5;6.3;5.3
74432;PMS7003;62865;53.146;23.172;2023-04-06T08:06:17;7.4;6.8;4
74432;PMS7003;62865;53.146;23.172;2023-04-06T08:11:21;7.3;7;4.5
74432;PMS7003;62865;53.146;23.172;2023-04-06T08:16:39;8.2;6;3.4
74432;PMS7003;62865;53.146;23.172;2023-04-06T08:21:05;7.8;6;4
74432;PMS7003;62865;53.146;23.172;2023-04-06T08:26:33;8.2;5.2;3.6
74432;PMS7003;62865;53.146;23.172;2023-04-06T08:31:23;7.2;5.4;3.8
74432;PMS7003;62865;53.146;23.172;2023-04-06T08:36:25;9.2;6.6;4.6
74432;PMS7003;62865;53.146;23.172;2023-04-06T08:41:23;7;6;4.8
74432;PMS7003;62865;53.146;23.172;2023-04-06T08:45:59;10.8;7.8;5.3
74432;PMS7003;62865;53.146;23.172;2023-04-06T08:51:39;8.5;8;5.8
74432;PMS7003;62865;53.146;23.172;2023-04-06T08:56:11;8.8;7.4;5.4
74432;PMS7003;62865;53.146;23.172;2023-04-06T09:01:06;11.8;8.4;6.2
74432;PMS7003;62865;53.146;23.172;2023-04-06T09:06:24;10.4;7.6;5.2
74432;PMS7003;62865;53.146;23.172;2023-04-06T09:11:00;11;9.8;6
74432;PMS7003;62865;53.146;23.172;2023-04-06T09:16:39;8.8;7.8;6
74432;PMS7003;62865;53.146;23.172;2023-04-06T09:21:11;12.2;9;6
74432;PMS7003;62865;53.146;23.172;2023-04-06T09:26:04;9.4;7.4;5
74432;PMS7003;62865;53.146;23.172;2023-04-06T09:31:22;12;7.6;5.2
74432;PMS7003;62865;53.146;23.172;2023-04-06T09:36:07;9.8;8.4;5.6
74432;PMS7003;62865;53.146;23.172;2023-04-06T09:41:39;9.2;7.4;4.6
74432;PMS7003;62865;53.146;23.172;2023-04-06T09:46:23;11;8.8;6.2
74432;PMS7003;62865;53.146;23.172;2023-04-06T09:51:16;12.2;9.8;6.4
74432;PMS7003;62865;53.146;23.172;2023-04-06T09:56:24;10.8;9.4;6.8
74432;PMS7003;62865;53.146;23.172;2023-04-06T10:01:37;10.4;8.4;6.6
74432;PMS7003;62865;53.146;23.172;2023-04-06T10:06:39;10.6;8.4;5.2
74432;PMS7003;62865;53.146;23.172;2023-04-06T10:11:05;12;8.8;6.6
74432;PMS7003;62865;53.146;23.172;2023-04-06T10:16:05;12.4;10.2;7.2
74432;PMS7003;62865;53.146;23.172;2023-04-06T10:21:24;11.6;10.2;6.8
74432;PMS7003;62865;53.146;23.172;2023-04-06T10:26:00;10.2;9.2;5.4
74432;PMS7003;62865;53.146;23.172;2023-04-06T10:31:41;13.8;11.4;7
74432;PMS7003;62865;53.146;23.172;2023-04-06T10:36:24;13;11.2;7
74432;PMS7003;62865;53.146;23.172;2023-04-06T10:41:12;12.6;10.2;7.4
74432;PMS7003;62865;53.146;23.172;2023-04-06T10:46:25;11.8;9.8;6.4
74432;PMS7003;62865;53.146;23.172;2023-04-06T10:51:07;14.4;11.8;7
74432;PMS7003;62865;53.146;23.172;2023-04-06T10:56:39;14.8;11.2;7.4
74432;PMS7003;62865;53.146;23.172;2023-04-06T11:01:25;16.8;12.5;8.3
74432;PMS7003;62865;53.146;23.172;2023-04-06T11:05:59;12.4;10.4;7.2
74432;PMS7003;62865;53.146;23.172;2023-04-06T11:11:18;11.4;10.4;7
74432;PMS7003;62865;53.146;23.172;2023-04-06T11:16:13;13.8;11;7.4
74432;PMS7003;62865;53.146;23.172;2023-04-06T11:21:41;14.8;12.2;7.6
74432;PMS7003;62865;53.146;23.172;2023-04-06T11:26:23;13.8;11.2;7.8
74432;PMS7003;62865;53.146;23.172;2023-04-06T11:31:05;14.2;11.2;7
74432;PMS7003;62865;53.146;23.172;2023-04-06T11:36:21;13.6;12.4;8.2
74432;PMS7003;62865;53.146;23.172;2023-04-06T11:41:11;13.4;11.8;8
74432;PMS7003;62865;53.146;23.172;2023-04-06T11:46:50;14.6;10.6;7.8
74432;PMS7003;62865;53.146;23.172;2023-04-06T11:51:26;15;13;9
74432;PMS7003;62865;53.146;23.172;2023-04-06T11:56:23;15.2;13.8;8.8
74432;PMS7003;62865;53.146;23.172;2023-04-06T12:01:24;15;12.6;8.8
74432;PMS7003;62865;53.146;23.172;2023-04-06T12:05:59;17.2;14.2;9
74432;PMS7003;62865;53.146;23.172;2023-04-06T12:11:39;14.3;12;7.5
74432;PMS7003;62865;53.146;23.172;2023-04-06T12:16:11;14.3;12.5;8.3
74432;PMS7003;62865;53.146;23.172;2023-04-06T12:20:59;18.2;15.6;8.4
74432;PMS7003;62865;53.146;23.172;2023-04-06T12:26:23;16.5;13;9
74432;PMS7003;62865;53.146;23.172;2023-04-06T12:31:14;16.6;15.2;9.6
74432;PMS7003;62865;53.146;23.172;2023-04-06T12:36:41;16.6;13.4;9.4
74432;PMS7003;62865;53.146;23.172;2023-04-06T12:41:23;17.5;15.8;10.3
74432;PMS7003;62865;53.146;23.172;2023-04-06T12:45:59;13.7;12.7;8.3
74432;PMS7003;62865;53.146;23.172;2023-04-06T12:51:23;16.8;14.5;9.5
74432;PMS7003;62865;53.146;23.172;2023-04-06T12:56:11;19;15.2;9.6
74432;PMS7003;62865;53.146;23.172;2023-04-06T13:01:39;20.3;18;11
74432;PMS7003;62865;53.146;23.172;2023-04-06T13:06:23;20;16.4;10
74432;PMS7003;62865;53.146;23.172;2023-04-06T13:11:06;19.8;17.2;10.6
74432;PMS7003;62865;53.146;23.172;2023-04-06T13:16:24;19.3;15.5;10
74432;PMS7003;62865;53.146;23.172;2023-04-06T13:21:13;20;17;10.4
74432;PMS7003;62865;53.146;23.172;2023-04-06T13:26:40;21.4;15.8;10
74432;PMS7003;62865;53.146;23.172;2023-04-06T13:31:17;23.8;19.2;10.4
74432;PMS7003;62865;53.146;23.172;2023-04-06T13:36:06;20.6;16.4;11
74432;PMS7003;62865;53.146;23.172;2023-04-06T13:41:26;25;19.8;11
74432;PMS7003;62865;53.146;23.172;2023-04-06T13:46:12;21;18;11.2
74432;PMS7003;62865;53.146;23.172;2023-04-06T13:51:42;23.3;19.3;11.8
74432;PMS7003;62865;53.146;23.172;2023-04-06T13:56:26;20.4;16.4;10.8
74432;PMS7003;62865;53.146;23.172;2023-04-06T14:01:01;22.2;18.8;11.2
74432;PMS7003;62865;53.146;23.172;2023-04-06T14:06:32;24.4;19.4;11.2
74432;PMS7003;62865;53.146;23.172;2023-04-06T14:11:14;28.6;23;14.2
74432;PMS7003;62865;53.146;23.172;2023-04-06T14:16:40;23;19;12
74432;PMS7003;62865;53.146;23.172;2023-04-06T14:21:26;22.2;19.2;12.8
74432;PMS7003;62865;53.146;23.172;2023-04-06T14:26:22;25.6;21.4;13
74432;PMS7003;62865;53.146;23.172;2023-04-06T14:31:28;24.6;18.8;11.8
74432;PMS7003;62865;53.146;23.172;2023-04-06T14:36:16;28;22.8;13.6
74432;PMS7003;62865;53.146;23.172;2023-04-06T14:41:43;24.8;20;12.8
74432;PMS7003;62865;53.146;23.172;2023-04-06T14:46:26;24.8;21.4;11.6
74432;PMS7003;62865;53.146;23.172;2023-04-06T14:51:07;25;21;13.2
74432;PMS7003;62865;53.146;23.172;2023-04-06T14:56:02;23;19.8;11.5
74432;PMS7003;62865;53.146;23.172;2023-04-06T15:01:02;23;18.6;12.2
74432;PMS7003;62865;53.146;23.172;2023-04-06T15:06:44;28.4;22;13
74432;PMS7003;62865;53.146;23.172;2023-04-06T15:11:28;33.4;28;15.2
74432;PMS7003;62865;53.146;23.172;2023-04-06T15:16:02;29.3;25.5;14.5
74432;PMS7003;62865;53.146;23.172;2023-04-06T15:21:28;26.7;23;14.3
74432;PMS7003;62865;53.146;23.172;2023-04-06T15:26:20;28.6;24.8;14.4
74432;PMS7003;62865;53.146;23.172;2023-04-06T15:31:42;29;25.3;14.7
74432;PMS7003;62865;53.146;23.172;2023-04-06T15:36:28;32.7;23.7;14.3
74432;PMS7003;62865;53.146;23.172;2023-04-06T15:41:02;27.3;18;11
74432;PMS7003;62865;53.146;23.172;2023-04-06T15:46:28;25.4;20.2;13
74432;PMS7003;62865;53.146;23.172;2023-04-06T15:51:02;25.8;22.8;13.2
74432;PMS7003;62865;53.146;23.172;2023-04-06T15:56:44;26.2;21;12.6
74432;PMS7003;62865;53.146;23.172;2023-04-06T16:01:28;19.5;16.5;10
74432;PMS7003;62865;53.146;23.172;2023-04-06T16:06:10;22.2;19.8;12.2
74432;PMS7003;62865;53.146;23.172;2023-04-06T16:11:28;20.6;17.2;11
74432;PMS7003;62865;53.146;23.172;2023-04-06T16:16:14;22.4;17.8;11.4
74432;PMS7003;62865;53.146;23.172;2023-04-06T16:21:42;25.8;22.2;12.6
74432;PMS7003;62865;53.146;23.172;2023-04-06T16:26:28;27.4;20.2;12.2
74432;PMS7003;62865;53.146;23.172;2023-04-06T16:31:17;23.3;19.7;12.3
74432;PMS7003;62865;53.146;23.172;2023-04-06T16:36:29;23.8;21.4;11.6
74432;PMS7003;62865;53.146;23.172;2023-04-06T16:41:16;23.8;20;12
74432;PMS7003;62865;53.146;23.172;2023-04-06T16:46:42;26.2;22.2;13.2
74432;PMS7003;62865;53.146;23.172;2023-04-06T16:51:28;27;23.5;13.8
74432;PMS7003;62865;53.146;23.172;2023-04-06T16:56:02;26;22.4;14.2
74432;PMS7003;62865;53.146;23.172;2023-04-06T17:01:28;25.2;21.8;11.6
74432;PMS7003;62865;53.146;23.172;2023-04-06T17:06:02;28.4;23.2;14.8
74432;PMS7003;62865;53.146;23.172;2023-04-06T17:11:44;31.8;25.8;15.8
74432;PMS7003;62865;53.146;23.172;2023-04-06T17:16:28;27.3;22.8;13.8
74432;PMS7003;62865;53.146;23.172;2023-04-06T17:21:02;25;21.4;14
74432;PMS7003;62865;53.146;23.172;2023-04-06T17:26:28;27.4;21;14
74432;PMS7003;62865;53.146;23.172;2023-04-06T17:31:16;28.8;22.5;14
74432;PMS7003;62865;53.146;23.172;2023-04-06T17:36:44;23.8;20.4;11.6
74432;PMS7003;62865;53.146;23.172;2023-04-06T17:41:28;29;24.5;14.8
74432;PMS7003;62865;53.146;23.172;2023-04-06T17:46:10;30.4;25.6;14.2
74432;PMS7003;62865;53.146;23.172;2023-04-06T17:51:28;33.8;26.6;14.2
74432;PMS7003;62865;53.146;23.172;2023-04-06T17:56:16;30;23.8;14.5
74432;PMS7003;62865;53.146;23.172;2023-04-06T18:01:44;28.6;24.2;15
74432;PMS7003;62865;53.146;23.172;2023-04-06T18:06:28;35.4;27.4;16
74432;PMS7003;62865;53.146;23.172;2023-04-06T18:11:16;35.8;28.6;17.2
74432;PMS7003;62865;53.146;23.172;2023-04-06T18:16:22;32.8;27.6;16
74432;PMS7003;62865;53.146;23.172;2023-04-06T18:21:12;31.6;28.8;17.2
74432;PMS7003;62865;53.146;23.172;2023-04-06T18:26:46;33;28;16.6
74432;PMS7003;62865;53.146;23.172;2023-04-06T18:31:30;30.8;26.6;16.6
74432;PMS7003;62865;53.146;23.172;2023-04-06T18:36:02;30;26.2;15.4
74432;PMS7003;62865;53.146;23.172;2023-04-06T18:41:30;35.4;30;16.8
74432;PMS7003;62865;53.146;23.172;2023-04-06T18:46:26;34.4;28.4;17.2
74432;PMS7003;62865;53.146;23.172;2023-04-06T18:51:46;36.5;28.8;17
74432;PMS7003;62865;53.146;23.172;2023-04-06T18:56:02;35.6;30.6;18
74432;PMS7003;62865;53.146;23.172;2023-04-06T19:01:21;37;29.4;17.8
74432;PMS7003;62865;53.146;23.172;2023-04-06T19:06:30;34;29.4;17.6
74432;PMS7003;62865;53.146;23.172;2023-04-06T19:11:05;39.8;32;19
74432;PMS7003;62865;53.146;23.172;2023-04-06T19:16:46;38.6;33.4;18.8
74432;PMS7003;62865;53.146;23.172;2023-04-06T19:21:30;41.8;33.8;20.3
74432;PMS7003;62865;53.146;23.172;2023-04-06T19:26:02;36.8;29.5;17
74432;PMS7003;62865;53.146;23.172;2023-04-06T19:31:30;33.6;28.4;17.6
74432;PMS7003;62865;53.146;23.172;2023-04-06T19:36:22;39.2;32.6;18.6
74432;PMS7003;62865;53.146;23.172;2023-04-06T19:41:38;41.2;35.4;21.2
74432;PMS7003;62865;53.146;23.172;2023-04-06T19:46:30;37;29.6;18.6
74432;PMS7003;62865;53.146;23.172;2023-04-06T19:51:02;37.4;29.6;17
74432;PMS7003;62865;53.146;23.172;2023-04-06T19:56:30;37.2;31.6;18.6
74432;PMS7003;62865;53.146;23.172;2023-04-06T20:01:02;35.6;31;19.6
74432;PMS7003;62865;53.146;23.172;2023-04-06T20:06:44;37.6;32.2;19.4
74432;PMS7003;62865;53.146;23.172;2023-04-06T20:11:20;36.6;31.8;20.2
74432;PMS7003;62865;53.146;23.172;2023-04-06T20:16:02;36.2;31;19.8
74432;PMS7003;62865;53.146;23.172;2023-04-06T20:21:30;39;32.4;19.8
74432;PMS7003;62865;53.146;23.172;2023-04-06T20:26:32;36.8;31.8;19.8
74432;PMS7003;62865;53.146;23.172;2023-04-06T20:31:46;34.5;30.3;19.5
74432;PMS7003;62865;53.146;23.172;2023-04-06T20:36:30;37;32.4;18.2
74432;PMS7003;62865;53.146;23.172;2023-04-06T20:41:18;41.2;33.6;21
74432;PMS7003;62865;53.146;23.172;2023-04-06T20:46:47;45.8;36.6;21.6
74432;PMS7003;62865;53.146;23.172;2023-04-06T20:51:02;43.4;35.4;20.4
74432;PMS7003;62865;53.146;23.172;2023-04-06T20:56:38;39.4;33.2;20.4
74432;PMS7003;62865;53.146;23.172;2023-04-06T21:01:11;39.2;32;19.6
74432;PMS7003;62865;53.146;23.172;2023-04-06T21:06:12;37.6;32.6;20
74432;PMS7003;62865;53.146;23.172;2023-04-06T21:11:46;42.6;33.4;19.8
74432;PMS7003;62865;53.146;23.172;2023-04-06T21:16:18;38.4;33;20
74432;PMS7003;62865;53.146;23.172;2023-04-06T21:21:38;41.2;35;21.2
74432;PMS7003;62865;53.146;23.172;2023-04-06T21:26:18;36.8;32.6;20.4
74432;PMS7003;62865;53.146;23.172;2023-04-06T21:31:04;39.8;32.4;19.8
74432;PMS7003;62865;53.146;23.172;2023-04-06T21:36:44;38.2;32.8;19.4
74432;PMS7003;62865;53.146;23.172;2023-04-06T21:41:18;40.2;33;19.2
74432;PMS7003;62865;53.146;23.172;2023-04-06T21:46:36;35.4;30.4;18.8
74432;PMS7003;62865;53.146;23.172;2023-04-06T21:51:18;38.4;32.2;20
74432;PMS7003;62865;53.146;23.172;2023-04-06T21:56:02;40.6;33.8;20.4
74432;PMS7003;62865;53.146;23.172;2023-04-06T22:01:46;39.8;32.8;20
74432;PMS7003;62865;53.146;23.172;2023-04-06T22:06:18;37;32.8;20.6
74432;PMS7003;62865;53.146;23.172;2023-04-06T22:11:38;40;34;20
74432;PMS7003;62865;53.146;23.172;2023-04-06T22:16:12;37.6;32.8;19.2
74432;PMS7003;62865;53.146;23.172;2023-04-06T22:21:12;43.8;35.2;20.6
74432;PMS7003;62865;53.146;23.172;2023-04-06T22:26:46;39;32.8;20.2
74432;PMS7003;62865;53.146;23.172;2023-04-06T22:31:18;40.8;33.2;20.2
74432;PMS7003;62865;53.146;23.172;2023-04-06T22:36:36;38.2;33.2;20.2
74432;PMS7003;62865;53.146;23.172;2023-04-06T22:41:18;41.4;33.4;20
74432;PMS7003;62865;53.146;23.172;2023-04-06T22:46:26;41.6;33.4;21
74432;PMS7003;62865;53.146;23.172;2023-04-06T22:51:44;40.6;33.6;20.8
74432;PMS7003;62865;53.146;23.172;2023-04-06T22:56:02;38.5;33.5;19.8
74432;PMS7003;62865;53.146;23.172;2023-04-06T23:01:02;36.6;32;18.8
74432;PMS7003;62865;53.146;23.172;2023-04-06T23:06:18;37.6;32;19
74432;PMS7003;62865;53.146;23.172;2023-04-06T23:11:16;39.8;34.8;20.4
74432;PMS7003;62865;53.146;23.172;2023-04-06T23:16:32;35.2;31;18.6
74432;PMS7003;62865;53.146;23.172;2023-04-06T23:21:18;37.6;32.6;19.4
74432;PMS7003;62865;53.146;23.172;2023-04-06T23:26:38;35.4;31.2;18.8
74432;PMS7003;62865;53.146;23.172;2023-04-06T23:31:08;36;31;19
74432;PMS7003;62865;53.146;23.172;2023-04-06T23:36:02;36.4;30.8;19.2
74432;PMS7003;62865;53.146;23.172;2023-04-06T23:41:46;34.2;30;18.8
74432;PMS7003;62865;53.146;23.172;2023-04-06T23:46:18;33.8;29.2;19
74432;PMS7003;62865;53.146;23.172;2023-04-06T23:51:38;31;27.6;18
74432;PMS7003;62865;53.146;23.172;2023-04-06T23:56:18;35.4;30;18
